Palmdale, CA (93590)

11:16 PM PDT on October 31, 2014 (GMT -0700)
Mount Emma | Change Station
CLOSE
Current Station
Personal Weather Station
Location: Palmdale, CA
Elevation: 3300 ft
Nearby Weather Stations
Active Advisory: Special Statement

Elev 3300 ft 34.51 °N, 118.05 °W | Updated 2 minutes ago

Mostly Cloudy
Mostly Cloudy
55.1 °F
Feels Like 55.1 °F
N
21.0
Wind Variable Wind from NE
Gusts 29.0 mph

Today
High -- | Low -- °F
--% Chance of Precip.
Yesterday
High -- | Low -- °F
Precip. -- in
7:11 AM 5:59 PM
Waxing Gibbous, 63% visible
Pressure 29.73 in
Visibility 10.0 miles
Clouds Few 2800 ft
Dew Point 46 °F
Humidity 70%
Rainfall -999.00 in
Snow Depth Not available.
UV 0 out of 12
Pollen 3.10 out of 12
Air Quality Not available.
Flu Activity Not available.
METAR KPMD 010553Z AUTO 21023KT 10SM FEW028 13/09 A2977 RMK AO2 PK WND 21030/0524 RAB16E40 SLP065 P0000 60000 T01330094 10172 20128 58007

More Conditions Fewer Conditions

Pressure 29.73 in
Visibility 10.0 miles
Clouds Few 2800 ft
Dew Point 46 °F
Humidity 70%
Rainfall -999.00 in
Snow Depth Not available.
UV 0 out of 12
Pollen 3.10 out of 12
Air Quality Not available.
Flu Activity Not available.
METAR KPMD 010553Z AUTO 21023KT 10SM FEW028 13/09 A2977 RMK AO2 PK WND 21030/0524 RAB16E40 SLP065 P0000 60000 T01330094 10172 20128 58007

More Conditions Fewer Conditions

Nowcast | as of 11:11 PM PDT on October 31, 2014

There will be local gusty southwest winds to 45 mph across portions of the Los Angeles and Ventura County mountains as well as the Antelope Valley foothills through 3 am Saturday morning. Highways affected will include Interstate 5 as well as Highway 14 and 33. Drivers in high profile vehicles could experience dangerous Crosswinds.

×

10-Day Weather Forecast

Almanac

Astronomy

Oct. 31, 2014 Rise Set
Actual Time
Civil Twilight
Nautical Twilight
Astronomical Twilight
Moon
Length of Visible Light
Length of Day
Tomorrow will be .
, % of the Moon is Illuminated

Today's Extremes

State Highs State Lows

Community

WunderPhotos

Upload Photos

1,766,866 photos uploaded!

WunderBlogs® & News

Nearby

Air Quality

  Air Quality AQ Index Pollutant
Not available.

Snow Depth

Station Depth Elevation

Earthquake Activity

City Distance Mag. Time & Date
Minimum magnitude displayed is 2.5.

Coastal Water Temperatures

Place Temperature

Nearby Weather Stations